createdAt,value
2023-05-19T00:00:09.786Z,102165.13
2023-05-19T00:02:41.571Z,102166.84
2023-05-19T00:05:11.375Z,102166.84
2023-05-19T00:07:40.068Z,102170.69
2023-05-19T00:10:11.702Z,102164.44
2023-05-19T00:12:40.160Z,102165.44
2023-05-19T00:15:10.550Z,102163.63
2023-05-19T00:17:38.955Z,102172.34
2023-05-19T00:20:08.806Z,102167.41
2023-05-19T00:22:37.062Z,102176.91
2023-05-19T00:25:06.283Z,102169.03
2023-05-19T00:27:35.907Z,102179.25
2023-05-19T00:30:04.161Z,102180.03
2023-05-19T00:32:32.399Z,102171.94
2023-05-19T00:35:00.796Z,102174.41
2023-05-19T00:37:29.033Z,102167.59
2023-05-19T00:39:58.130Z,102174.94
2023-05-19T00:42:26.877Z,102176.44
2023-05-19T00:44:57.405Z,102167.44
2023-05-19T00:47:25.722Z,102171.25
2023-05-19T00:49:53.969Z,102174.44
2023-05-19T00:52:22.411Z,102173.47
2023-05-19T00:54:52.643Z,102172.72
2023-05-19T00:57:21.756Z,102169.44
2023-05-19T00:59:50.083Z,102173.56
2023-05-19T01:02:19.766Z,102177.53
2023-05-19T01:04:48.908Z,102172.88
2023-05-19T01:07:18.723Z,102167.72
2023-05-19T01:09:48.671Z,102170.34
2023-05-19T01:12:17.143Z,102178.03
2023-05-19T01:14:45.540Z,102173.72
2023-05-19T01:17:23.125Z,102171.56
2023-05-19T01:20:06.573Z,102165.53
2023-05-19T01:23:16.724Z,102171.34
2023-05-19T01:26:20.436Z,102166.88
2023-05-19T01:29:15.787Z,102164.88
2023-05-19T01:31:47.958Z,102166.53
2023-05-19T01:34:17.905Z,102177.06
2023-05-19T01:36:50.296Z,102182.09
2023-05-19T01:39:19.457Z,102171.50
2023-05-19T01:41:48.427Z,102169.41
2023-05-19T01:44:17.034Z,102168.97
2023-05-19T01:46:48.046Z,102172.19
2023-05-19T01:49:16.354Z,102175.09
2023-05-19T01:51:46.400Z,102175.63
2023-05-19T01:54:14.571Z,102178.88
2023-05-19T01:57:01.366Z,102178.56
2023-05-19T01:59:42.738Z,102176.19
2023-05-19T02:02:22.000Z,102170.44
2023-05-19T02:04:56.761Z,102176.94
2023-05-19T02:07:33.882Z,102177.47
2023-05-19T02:10:07.942Z,102174.34
2023-05-19T02:12:38.876Z,102174.66
2023-05-19T02:15:10.637Z,102164.16
2023-05-19T02:17:44.314Z,102162.91
2023-05-19T02:20:12.929Z,102164.75
2023-05-19T02:22:41.319Z,102164.00
2023-05-19T02:25:10.610Z,102161.84
2023-05-19T02:27:39.782Z,102156.94
2023-05-19T02:30:09.776Z,102162.09
2023-05-19T02:32:39.966Z,102163.22
2023-05-19T02:35:09.202Z,102158.75
2023-05-19T02:37:37.408Z,102159.69
2023-05-19T02:40:07.275Z,102154.25
2023-05-19T02:42:35.453Z,102157.13
2023-05-19T02:45:03.967Z,102155.22
2023-05-19T02:47:32.842Z,102159.16
2023-05-19T02:50:03.660Z,102159.22
2023-05-19T02:52:32.153Z,102159.78
2023-05-19T02:55:00.412Z,102166.75
2023-05-19T02:57:31.892Z,102158.19
2023-05-19T03:00:00.243Z,102167.81
2023-05-19T03:02:28.592Z,102154.88
2023-05-19T03:04:56.880Z,102155.63
2023-05-19T03:07:26.811Z,102159.25
2023-05-19T03:09:55.072Z,102154.41
2023-05-19T03:12:23.414Z,102149.22
2023-05-19T03:14:51.875Z,102150.16
2023-05-19T03:17:20.083Z,102158.63
2023-05-19T03:19:48.451Z,102159.03
2023-05-19T03:22:21.335Z,102151.88
2023-05-19T03:24:54.629Z,102152.72
2023-05-19T03:27:22.863Z,102155.66
2023-05-19T03:29:52.843Z,102164.28
2023-05-19T03:32:21.544Z,102165.88
2023-05-19T03:34:49.980Z,102162.81
2023-05-19T03:37:18.423Z,102163.47
2023-05-19T03:39:46.822Z,102160.69
2023-05-19T03:42:17.030Z,102159.38
2023-05-19T03:44:45.671Z,102165.88
2023-05-19T03:47:14.521Z,102165.88
2023-05-19T03:50:05.401Z,102160.19
2023-05-19T03:52:55.244Z,102165.44
2023-05-19T03:55:29.932Z,102177.56
2023-05-19T03:57:59.770Z,102168.13
2023-05-19T04:00:27.983Z,102172.09
2023-05-19T04:02:56.335Z,102167.56
2023-05-19T04:05:24.749Z,102174.75
2023-05-19T04:07:53.319Z,102166.09
2023-05-19T04:10:22.018Z,102163.84
2023-05-19T04:12:50.234Z,102168.59
2023-05-19T04:15:20.034Z,102159.34
2023-05-19T04:17:48.326Z,102156.28
2023-05-19T04:20:16.553Z,102159.28
2023-05-19T04:22:44.957Z,102159.69
2023-05-19T04:25:13.208Z,102160.41
2023-05-19T04:27:41.437Z,102157.69
2023-05-19T04:30:10.764Z,102169.44
2023-05-19T04:32:41.453Z,102161.09
2023-05-19T04:35:10.805Z,102164.38
2023-05-19T04:37:39.141Z,102167.03
2023-05-19T04:40:11.169Z,102170.84
2023-05-19T04:42:41.433Z,102170.38
2023-05-19T04:45:12.420Z,102168.50
2023-05-19T04:47:46.930Z,102166.91
2023-05-19T04:50:16.402Z,102171.25
2023-05-19T04:52:45.663Z,102172.22
2023-05-19T04:55:14.011Z,102167.53
2023-05-19T04:57:43.224Z,102168.78
2023-05-19T05:00:14.831Z,102171.72
2023-05-19T05:03:05.116Z,102172.72
2023-05-19T05:05:34.318Z,102176.31
2023-05-19T05:08:03.214Z,102170.34
2023-05-19T05:10:36.110Z,102170.31
2023-05-19T05:13:05.015Z,102178.59
2023-05-19T05:15:33.611Z,102171.34
2023-05-19T05:18:05.899Z,102185.19
2023-05-19T05:20:35.116Z,102186.72
2023-05-19T05:23:04.129Z,102181.31
2023-05-19T05:25:34.576Z,102184.66
2023-05-19T05:28:05.194Z,102184.66
2023-05-19T05:30:35.588Z,102182.16
2023-05-19T05:33:07.203Z,102183.56
2023-05-19T05:35:38.775Z,102181.09
2023-05-19T05:38:08.736Z,102189.47
2023-05-19T05:40:38.384Z,102190.50
2023-05-19T05:43:07.498Z,102187.50
2023-05-19T05:45:40.829Z,102190.09
2023-05-19T05:48:12.007Z,102189.09
2023-05-19T05:50:41.519Z,102185.13
2023-05-19T05:53:10.957Z,102189.56
2023-05-19T05:55:42.218Z,102194.13
2023-05-19T05:58:11.161Z,102192.63
2023-05-19T06:00:39.803Z,102194.41
2023-05-19T06:03:11.076Z,102194.31
2023-05-19T06:05:39.626Z,102198.09
2023-05-19T06:08:08.375Z,102194.44
2023-05-19T06:10:39.018Z,102190.59
2023-05-19T06:13:09.799Z,102193.97
2023-05-19T06:15:39.792Z,102198.38
2023-05-19T06:18:16.529Z,102196.63
2023-05-19T06:20:44.982Z,102204.91
2023-05-19T06:23:13.192Z,102199.78
2023-05-19T06:25:41.549Z,102202.41
2023-05-19T06:28:09.846Z,102206.59
2023-05-19T06:30:38.846Z,102208.56
2023-05-19T06:33:31.046Z,102200.16
2023-05-19T06:35:59.358Z,102197.09
2023-05-19T06:38:27.610Z,102197.56
2023-05-19T06:40:56.547Z,102196.00
2023-05-19T06:43:25.748Z,102198.47
2023-05-19T06:45:58.864Z,102193.97
2023-05-19T06:48:27.773Z,102187.06
2023-05-19T06:50:57.505Z,102192.06
2023-05-19T06:53:26.383Z,102191.53
2023-05-19T06:55:59.899Z,102197.38
2023-05-19T06:58:33.145Z,102197.22
2023-05-19T07:01:04.057Z,102197.94
2023-05-19T07:03:37.729Z,102192.97
2023-05-19T07:06:08.656Z,102194.91
2023-05-19T07:08:38.020Z,102197.59
2023-05-19T07:11:08.344Z,102195.41
2023-05-19T07:13:36.755Z,102194.75
2023-05-19T07:16:06.463Z,102193.72
2023-05-19T07:18:35.404Z,102192.88
2023-05-19T07:21:04.050Z,102187.53
2023-05-19T07:23:34.242Z,102194.09
2023-05-19T07:26:02.461Z,102196.22
2023-05-19T07:28:30.686Z,102204.19
2023-05-19T07:30:58.970Z,102205.19
2023-05-19T07:33:27.667Z,102189.19
2023-05-19T07:35:56.183Z,102190.25
2023-05-19T07:38:24.488Z,102191.28
2023-05-19T07:40:54.062Z,102193.78
2023-05-19T07:43:22.230Z,102188.44
2023-05-19T07:45:50.532Z,102196.94
2023-05-19T07:48:19.209Z,102186.22
2023-05-19T07:50:47.621Z,102191.97
2023-05-19T07:53:16.662Z,102188.88
2023-05-19T07:55:44.973Z,102184.31
2023-05-19T07:58:14.635Z,102180.00
2023-05-19T08:00:43.645Z,102178.94
2023-05-19T08:03:12.029Z,102180.16
2023-05-19T08:05:40.626Z,102182.41
2023-05-19T08:08:08.827Z,102177.97
2023-05-19T08:10:37.015Z,102183.03
2023-05-19T08:13:05.352Z,102174.16
2023-05-19T08:15:35.023Z,102174.44
2023-05-19T08:18:03.393Z,102178.28
2023-05-19T08:20:31.861Z,102179.63
2023-05-19T08:23:00.483Z,102178.97
2023-05-19T08:25:28.752Z,102185.84
2023-05-19T08:27:56.930Z,102185.38
2023-05-19T08:30:25.287Z,102179.72
2023-05-19T08:32:54.890Z,102180.84
2023-05-19T08:35:23.409Z,102179.63
2023-05-19T08:37:51.631Z,102174.06
2023-05-19T08:40:20.665Z,102175.50
2023-05-19T08:42:49.137Z,102180.41
2023-05-19T08:45:17.359Z,102178.75
2023-05-19T08:47:47.854Z,102186.00
2023-05-19T08:50:22.818Z,102171.03
2023-05-19T08:52:54.084Z,102168.94
2023-05-19T08:55:33.879Z,102169.53
2023-05-19T08:58:04.438Z,102167.09
2023-05-19T09:00:33.875Z,102161.56
2023-05-19T09:03:17.623Z,102167.66
2023-05-19T09:05:52.480Z,102152.56
2023-05-19T09:08:20.861Z,102152.63
2023-05-19T09:10:49.140Z,102151.50
2023-05-19T09:13:17.367Z,102139.28
2023-05-19T09:15:46.544Z,102137.78
2023-05-19T09:18:15.816Z,102127.19
2023-05-19T09:20:46.026Z,102126.06
2023-05-19T09:23:16.977Z,102127.91
2023-05-19T09:25:49.368Z,102117.81
2023-05-19T09:28:25.089Z,102121.88
2023-05-19T09:31:04.330Z,102123.19
2023-05-19T09:33:35.161Z,102109.66
2023-05-19T09:36:05.556Z,102105.88
2023-05-19T09:38:36.278Z,102104.28
2023-05-19T09:41:06.310Z,102119.41
2023-05-19T09:43:36.499Z,102117.50
2023-05-19T09:46:05.782Z,102117.19
2023-05-19T09:48:34.515Z,102115.22
2023-05-19T09:51:03.465Z,102117.91
2023-05-19T09:53:32.421Z,102124.81
2023-05-19T09:56:03.575Z,102111.97
2023-05-19T09:58:34.686Z,102122.50
2023-05-19T10:01:04.350Z,102107.41
2023-05-19T10:03:33.643Z,102113.75
2023-05-19T10:06:02.706Z,102092.44
2023-05-19T10:08:31.916Z,102095.34
2023-05-19T10:11:00.986Z,102090.75
2023-05-19T10:13:32.085Z,102096.41
2023-05-19T10:16:00.876Z,102092.03
2023-05-19T10:18:30.286Z,102092.16
2023-05-19T10:20:59.942Z,102094.72
2023-05-19T10:23:28.148Z,102092.59
2023-05-19T10:25:59.768Z,102100.41
2023-05-19T10:28:36.726Z,102102.53
2023-05-19T10:31:09.605Z,102085.94
2023-05-19T10:33:47.464Z,102080.56
2023-05-19T10:36:33.709Z,102084.53
2023-05-19T10:39:07.048Z,102089.00
2023-05-19T10:41:43.964Z,102076.38
2023-05-19T10:44:21.400Z,102076.16
2023-05-19T10:46:49.925Z,102080.53
2023-05-19T10:49:21.508Z,102075.25
2023-05-19T10:51:49.837Z,102074.59
2023-05-19T10:54:20.963Z,102077.53
2023-05-19T10:56:49.170Z,102069.44
2023-05-19T10:59:37.230Z,102075.72
2023-05-19T11:02:06.454Z,102081.09
2023-05-19T11:04:49.551Z,102084.53
2023-05-19T11:07:21.339Z,102067.03
2023-05-19T11:09:51.488Z,102062.91
2023-05-19T11:12:22.336Z,102066.06
2023-05-19T11:14:55.900Z,102067.69
2023-05-19T11:17:27.387Z,102055.69
2023-05-19T11:19:58.698Z,102070.66
2023-05-19T11:22:27.801Z,102070.19
2023-05-19T11:24:56.554Z,102064.53
2023-05-19T11:27:29.008Z,102063.25
2023-05-19T11:30:00.264Z,102066.72
2023-05-19T11:32:31.143Z,102082.59
2023-05-19T11:34:59.451Z,102081.91
2023-05-19T11:37:28.968Z,102076.03
2023-05-19T11:39:57.292Z,102066.00
2023-05-19T11:42:25.521Z,102059.53
2023-05-19T11:44:58.935Z,102062.56
2023-05-19T11:47:28.469Z,102051.66
2023-05-19T11:49:57.507Z,102060.69
2023-05-19T11:52:27.376Z,102068.59
2023-05-19T11:54:56.856Z,102059.50
2023-05-19T11:57:25.119Z,102048.81
2023-05-19T11:59:56.630Z,102059.84
2023-05-19T12:02:27.708Z,102055.28
2023-05-19T12:04:56.170Z,102054.25
2023-05-19T12:07:26.262Z,102062.41
2023-05-19T12:09:56.016Z,102059.84
2023-05-19T12:12:24.445Z,102052.41
2023-05-19T12:14:53.580Z,102047.13
2023-05-19T12:17:23.968Z,102048.81
2023-05-19T12:19:53.791Z,102048.41
2023-05-19T12:22:22.315Z,102039.59
2023-05-19T12:24:51.965Z,102046.06
2023-05-19T12:27:21.266Z,102049.22
2023-05-19T12:29:53.343Z,102051.13
2023-05-19T12:32:25.501Z,102039.19
2023-05-19T12:34:57.126Z,102049.81
2023-05-19T12:37:29.998Z,102042.13
2023-05-19T12:39:58.668Z,102052.03
2023-05-19T12:42:31.086Z,102053.78
2023-05-19T12:45:02.972Z,102061.09
2023-05-19T12:47:34.686Z,102048.88
2023-05-19T12:50:05.625Z,102049.28
2023-05-19T12:52:36.245Z,102052.06
2023-05-19T12:55:07.092Z,102036.41
2023-05-19T12:57:36.333Z,102023.63
2023-05-19T13:00:07.383Z,102023.50
2023-05-19T13:02:36.779Z,102040.56
2023-05-19T13:05:07.107Z,102028.00
2023-05-19T13:07:35.949Z,102041.63
2023-05-19T13:10:04.185Z,102036.72
2023-05-19T13:12:32.497Z,102042.75
2023-05-19T13:15:01.030Z,102036.16
2023-05-19T13:17:29.254Z,102029.94
2023-05-19T13:19:57.684Z,102017.25
2023-05-19T13:22:27.355Z,102013.59
2023-05-19T13:24:58.775Z,102001.75
2023-05-19T13:27:27.194Z,102007.94
2023-05-19T13:29:55.357Z,102018.34
2023-05-19T13:32:23.656Z,102023.47
2023-05-19T13:34:51.956Z,102031.03
2023-05-19T13:37:20.378Z,102026.06
2023-05-19T13:39:49.970Z,102020.06
2023-05-19T13:42:18.370Z,102030.63
2023-05-19T13:44:46.971Z,102030.34
2023-05-19T13:47:15.458Z,102027.25
2023-05-19T13:49:43.656Z,102040.16
2023-05-19T13:52:12.942Z,102028.06
2023-05-19T13:54:41.371Z,102028.47
2023-05-19T13:57:11.861Z,102024.44
2023-05-19T13:59:52.977Z,102019.97
2023-05-19T14:02:28.444Z,102016.59
2023-05-19T14:04:57.004Z,102010.72
2023-05-19T14:07:25.490Z,102021.34
2023-05-19T14:09:54.120Z,102021.97
2023-05-19T14:12:30.951Z,102011.72
2023-05-19T14:15:05.676Z,102022.50
2023-05-19T14:17:34.021Z,102029.47
2023-05-19T14:20:02.585Z,102029.56
2023-05-19T14:22:30.910Z,102028.91
2023-05-19T14:25:00.442Z,102039.00
2023-05-19T14:27:30.189Z,102044.47
2023-05-19T14:29:58.521Z,102045.00
2023-05-19T14:32:29.464Z,102036.78
2023-05-19T14:34:58.513Z,102035.03
2023-05-19T14:37:28.933Z,102038.59
2023-05-19T14:39:58.259Z,102043.09
2023-05-19T14:42:26.579Z,102035.75
2023-05-19T14:44:56.088Z,102035.56
2023-05-19T14:47:26.171Z,102035.56
2023-05-19T14:49:55.342Z,102036.81
2023-05-19T14:52:23.648Z,102038.56
2023-05-19T14:54:51.886Z,102031.88
2023-05-19T14:57:20.103Z,102034.16
2023-05-19T14:59:48.479Z,102014.00
2023-05-19T15:02:18.064Z,102008.16
2023-05-19T15:04:46.448Z,102009.31
2023-05-19T15:07:14.694Z,102007.50
2023-05-19T15:09:43.003Z,102022.41
2023-05-19T15:12:11.440Z,102028.78
2023-05-19T15:14:39.594Z,102029.78
2023-05-19T15:17:07.815Z,102022.34
2023-05-19T15:19:37.482Z,101998.28
2023-05-19T15:22:06.027Z,101984.34
2023-05-19T15:24:34.370Z,101982.94
2023-05-19T15:27:02.860Z,101969.66
2023-05-19T15:29:31.077Z,101977.53
2023-05-19T15:31:59.324Z,101992.03
2023-05-19T15:34:27.808Z,101978.63
2023-05-19T15:36:57.362Z,101980.09
2023-05-19T15:39:25.653Z,101978.41
2023-05-19T15:41:54.239Z,101990.06
2023-05-19T15:44:22.437Z,101993.28
2023-05-19T15:46:50.714Z,101978.56
2023-05-19T15:49:19.080Z,101986.66
2023-05-19T15:51:47.618Z,101992.28
2023-05-19T15:54:17.175Z,101980.88
2023-05-19T15:56:45.435Z,101972.28
2023-05-19T15:59:13.714Z,101969.47
2023-05-19T16:01:41.995Z,101968.81
2023-05-19T16:04:10.316Z,101981.28
2023-05-19T16:06:38.548Z,101999.09
2023-05-19T16:09:07.079Z,102011.06
2023-05-19T16:11:36.958Z,102004.84
2023-05-19T16:14:05.351Z,102007.88
2023-05-19T16:16:33.592Z,102007.03
2023-05-19T16:19:01.892Z,102013.56
2023-05-19T16:21:30.152Z,102011.31
2023-05-19T16:23:58.314Z,102001.16
2023-05-19T16:26:26.612Z,101993.28
2023-05-19T16:28:56.341Z,101990.50
2023-05-19T16:31:24.591Z,101991.78
2023-05-19T16:33:52.780Z,101991.81
2023-05-19T16:36:22.745Z,101981.69
2023-05-19T16:38:50.984Z,101984.47
2023-05-19T16:41:19.202Z,101980.88
2023-05-19T16:43:47.412Z,101984.38
2023-05-19T16:46:17.078Z,101986.69
2023-05-19T16:48:45.391Z,101988.34
2023-05-19T16:51:13.594Z,101980.19
2023-05-19T16:53:41.753Z,101984.44
2023-05-19T16:56:10.256Z,101982.50
2023-05-19T16:58:38.477Z,101988.91
2023-05-19T17:01:06.847Z,101993.63
2023-05-19T17:03:36.712Z,102002.28
2023-05-19T17:06:04.957Z,101992.72
2023-05-19T17:08:33.554Z,102002.53
2023-05-19T17:11:01.786Z,102003.13
2023-05-19T17:13:33.603Z,101993.53
2023-05-19T17:16:02.102Z,101991.75
2023-05-19T17:18:31.217Z,102001.06
2023-05-19T17:21:03.643Z,101996.91
2023-05-19T17:23:32.242Z,102002.00
2023-05-19T17:26:00.788Z,102004.09
2023-05-19T17:28:29.026Z,102006.50
2023-05-19T17:30:57.247Z,102007.16
2023-05-19T17:33:25.640Z,102006.31
2023-05-19T17:35:53.908Z,102007.19
2023-05-19T17:38:23.439Z,102015.91
2023-05-19T17:40:53.506Z,102018.84
2023-05-19T17:43:21.697Z,102022.88
2023-05-19T17:45:49.946Z,102024.41
2023-05-19T17:48:18.133Z,102027.66
2023-05-19T17:50:47.535Z,102027.59
2023-05-19T17:53:16.239Z,102031.31
2023-05-19T17:55:52.830Z,102029.59
2023-05-19T17:58:21.581Z,102031.50
2023-05-19T18:00:50.233Z,102026.34
2023-05-19T18:03:19.232Z,102034.19
2023-05-19T18:05:48.295Z,102030.34
2023-05-19T18:08:17.357Z,102028.97
2023-05-19T18:10:48.589Z,102031.09
2023-05-19T18:13:16.808Z,102034.72
2023-05-19T18:15:45.042Z,102039.66
2023-05-19T18:18:13.617Z,102039.94
2023-05-19T18:20:44.723Z,102043.59
2023-05-19T18:23:13.409Z,102045.25
2023-05-19T18:25:41.615Z,102038.41
2023-05-19T18:28:11.606Z,102043.22
2023-05-19T18:30:40.030Z,102044.59
2023-05-19T18:33:08.886Z,102059.84
2023-05-19T18:35:37.684Z,102050.97
2023-05-19T18:38:06.406Z,102054.34
2023-05-19T18:40:34.978Z,102053.84
2023-05-19T18:43:03.390Z,102046.81
2023-05-19T18:45:32.937Z,102057.38
2023-05-19T18:48:01.318Z,102056.84
2023-05-19T18:50:29.628Z,102063.78
2023-05-19T18:52:57.773Z,102058.84
2023-05-19T18:55:26.051Z,102065.75
2023-05-19T18:57:54.457Z,102057.81
2023-05-19T19:00:22.700Z,102057.72
2023-05-19T19:02:52.299Z,102060.66
2023-05-19T19:05:20.630Z,102059.19
2023-05-19T19:07:49.342Z,102065.03
2023-05-19T19:10:17.739Z,102061.25
2023-05-19T19:12:46.029Z,102062.81
2023-05-19T19:15:14.301Z,102060.41
2023-05-19T19:17:42.471Z,102062.88
2023-05-19T19:20:13.352Z,102056.63
2023-05-19T19:22:41.709Z,102062.13
2023-05-19T19:25:10.768Z,102058.41
2023-05-19T19:27:39.057Z,102058.50
2023-05-19T19:30:09.071Z,102054.63
2023-05-19T19:32:37.369Z,102065.22
2023-05-19T19:35:06.177Z,102053.69
2023-05-19T19:37:36.039Z,102060.06
2023-05-19T19:40:04.742Z,102051.44
2023-05-19T19:42:33.119Z,102048.75
2023-05-19T19:45:01.627Z,102056.34
2023-05-19T19:47:30.032Z,102057.81
2023-05-19T19:49:58.979Z,102052.13
2023-05-19T19:52:27.282Z,102046.28
2023-05-19T19:54:57.306Z,102055.44
2023-05-19T19:57:26.869Z,102059.13
2023-05-19T19:59:57.417Z,102050.44
2023-05-19T20:02:25.975Z,102055.88
2023-05-19T20:04:54.285Z,102057.28
2023-05-19T20:07:23.163Z,102054.16
2023-05-19T20:09:52.717Z,102057.31
2023-05-19T20:12:22.408Z,102047.13
2023-05-19T20:14:51.435Z,102041.56
2023-05-19T20:17:19.741Z,102047.56
2023-05-19T20:19:48.190Z,102051.38
2023-05-19T20:22:16.655Z,102049.88
2023-05-19T20:24:45.034Z,102046.63
2023-05-19T20:27:13.250Z,102055.91
2023-05-19T20:29:43.104Z,102065.16
2023-05-19T20:32:11.723Z,102058.53
2023-05-19T20:34:39.971Z,102058.47
2023-05-19T20:37:08.512Z,102063.31
2023-05-19T20:39:36.658Z,102065.19
2023-05-19T20:42:05.122Z,102071.25
2023-05-19T20:44:33.318Z,102067.38
2023-05-19T20:47:04.206Z,102077.69
2023-05-19T20:49:32.507Z,102075.50
2023-05-19T20:52:00.859Z,102078.50
2023-05-19T20:54:29.107Z,102073.34
2023-05-19T20:56:57.391Z,102083.03
2023-05-19T20:59:25.962Z,102077.66
2023-05-19T21:01:54.157Z,102088.41
2023-05-19T21:04:23.915Z,102089.41
2023-05-19T21:06:52.486Z,102080.63
2023-05-19T21:09:20.722Z,102081.91
2023-05-19T21:11:48.903Z,102075.22
2023-05-19T21:14:17.121Z,102084.56
2023-05-19T21:16:45.387Z,102079.78
2023-05-19T21:19:13.858Z,102076.00
2023-05-19T21:21:44.919Z,102079.25
2023-05-19T21:24:13.361Z,102077.00
2023-05-19T21:26:41.990Z,102086.25
2023-05-19T21:29:10.646Z,102086.78
2023-05-19T21:31:39.082Z,102089.78
2023-05-19T21:34:08.144Z,102093.59
2023-05-19T21:36:36.424Z,102092.44
2023-05-19T21:39:06.366Z,102096.38
2023-05-19T21:41:35.508Z,102098.22
2023-05-19T21:44:03.784Z,102099.97
2023-05-19T21:46:32.008Z,102101.84
2023-05-19T21:49:00.384Z,102099.03
2023-05-19T21:51:29.133Z,102114.78
2023-05-19T21:53:57.416Z,102108.66
2023-05-19T21:56:27.414Z,102118.25
2023-05-19T21:58:55.791Z,102117.16
2023-05-19T22:01:24.016Z,102116.22
2023-05-19T22:03:53.970Z,102118.41
2023-05-19T22:06:22.369Z,102113.03
2023-05-19T22:08:50.577Z,102109.66
2023-05-19T22:11:18.914Z,102107.66
2023-05-19T22:13:48.462Z,102112.91
2023-05-19T22:16:16.789Z,102110.56
2023-05-19T22:18:45.024Z,102107.75
2023-05-19T22:21:13.295Z,102097.25
2023-05-19T22:23:41.527Z,102102.34
2023-05-19T22:26:09.926Z,102111.09
2023-05-19T22:28:38.445Z,102101.69
2023-05-19T22:31:08.016Z,102105.06
2023-05-19T22:33:36.207Z,102110.06
2023-05-19T22:36:04.605Z,102100.97
2023-05-19T22:38:32.883Z,102100.19
2023-05-19T22:41:01.082Z,102102.69
2023-05-19T22:43:29.397Z,102104.25
2023-05-19T22:45:57.665Z,102114.06
2023-05-19T22:48:27.242Z,102104.91
2023-05-19T22:50:55.622Z,102107.78
2023-05-19T22:53:23.852Z,102105.84
2023-05-19T22:55:52.024Z,102099.75
2023-05-19T22:58:20.199Z,102106.06
2023-05-19T23:00:48.427Z,102107.50
2023-05-19T23:03:16.855Z,102105.72
2023-05-19T23:05:46.449Z,102104.31
2023-05-19T23:08:14.605Z,102113.25
2023-05-19T23:10:42.817Z,102115.69
2023-05-19T23:13:11.952Z,102118.91
2023-05-19T23:15:40.149Z,102124.28
2023-05-19T23:18:08.713Z,102109.97
2023-05-19T23:20:36.958Z,102126.88
2023-05-19T23:23:06.576Z,102113.28
2023-05-19T23:25:35.129Z,102112.59
2023-05-19T23:28:03.942Z,102112.97
2023-05-19T23:30:32.996Z,102107.84
2023-05-19T23:33:01.214Z,102104.97
2023-05-19T23:35:29.474Z,102098.81
2023-05-19T23:37:57.732Z,102094.09
2023-05-19T23:40:27.392Z,102093.22
2023-05-19T23:42:55.816Z,102091.50
2023-05-19T23:45:24.028Z,102092.25
2023-05-19T23:47:52.335Z,102085.31
2023-05-19T23:50:20.600Z,102082.59
2023-05-19T23:52:49.007Z,102077.03
2023-05-19T23:55:17.247Z,102072.91
2023-05-19T23:57:46.809Z,102075.50
